createdAt,value
2019-01-20T00:02:14.693Z,38.53
2019-01-20T00:04:45.084Z,39.67
2019-01-20T00:07:15.429Z,35.67
2019-01-20T00:09:45.863Z,38.37
2019-01-20T00:12:16.541Z,37.57
2019-01-20T00:14:46.835Z,38.00
2019-01-20T00:17:17.715Z,35.93
2019-01-20T00:19:48.389Z,34.77
2019-01-20T00:22:18.729Z,33.70
2019-01-20T00:24:49.254Z,34.13
2019-01-20T00:27:20.157Z,33.97
2019-01-20T00:29:50.468Z,33.43
2019-01-20T00:32:20.867Z,34.40
2019-01-20T00:34:51.441Z,34.17
2019-01-20T00:37:22.045Z,31.57
2019-01-20T00:39:52.408Z,32.33
2019-01-20T00:42:22.927Z,34.13
2019-01-20T00:44:53.379Z,34.60
2019-01-20T00:47:25.366Z,33.93
2019-01-20T00:49:55.780Z,32.37
2019-01-20T00:52:26.090Z,33.33
2019-01-20T00:54:56.857Z,33.23
2019-01-20T00:57:28.364Z,32.63
2019-01-20T00:59:58.663Z,33.17
2019-01-20T01:02:29.512Z,31.20
2019-01-20T01:04:59.845Z,33.20
2019-01-20T01:07:30.419Z,32.00
2019-01-20T01:10:00.715Z,32.30
2019-01-20T01:12:31.348Z,32.57
2019-01-20T01:15:02.029Z,32.17
2019-01-20T01:17:33.520Z,31.77
2019-01-20T01:20:04.558Z,32.70
2019-01-20T01:22:35.175Z,29.10
2019-01-20T01:25:06.743Z,30.73
2019-01-20T01:27:37.132Z,31.17
2019-01-20T01:30:20.398Z,28.33
2019-01-20T01:32:51.195Z,31.00
2019-01-20T01:35:21.477Z,31.80
2019-01-20T01:37:53.025Z,30.47
2019-01-20T01:40:23.319Z,28.80
2019-01-20T01:42:54.135Z,28.37
2019-01-20T01:45:24.601Z,29.03
2019-01-20T01:47:55.021Z,28.97
2019-01-20T01:50:25.804Z,27.30
2019-01-20T01:52:56.377Z,28.97
2019-01-20T01:55:26.718Z,28.27
2019-01-20T01:57:57.681Z,28.93
2019-01-20T02:00:28.437Z,28.70
2019-01-20T02:02:58.927Z,27.77
2019-01-20T02:05:29.296Z,26.93
2019-01-20T02:08:00.006Z,24.37
2019-01-20T02:10:30.341Z,25.63
2019-01-20T02:13:00.809Z,23.50
2019-01-20T02:15:32.640Z,20.73
2019-01-20T02:18:03.009Z,23.30
2019-01-20T02:20:33.322Z,23.57
2019-01-20T02:23:04.386Z,21.13
2019-01-20T02:25:35.830Z,20.87
2019-01-20T02:28:06.193Z,19.83
2019-01-20T02:30:36.772Z,19.43
2019-01-20T02:33:07.467Z,21.63
2019-01-20T02:35:37.780Z,20.50
2019-01-20T02:38:08.478Z,20.37
2019-01-20T02:40:39.079Z,19.93
2019-01-20T02:43:09.482Z,17.17
2019-01-20T02:45:40.073Z,18.60
2019-01-20T02:48:10.584Z,16.57
2019-01-20T02:50:42.177Z,17.17
2019-01-20T02:53:13.042Z,17.27
2019-01-20T02:55:44.331Z,16.87
2019-01-20T02:58:15.159Z,15.83
2019-01-20T03:00:45.905Z,17.47
2019-01-20T03:03:16.226Z,16.37
2019-01-20T03:05:46.558Z,16.40
2019-01-20T03:08:16.994Z,15.17
2019-01-20T03:10:47.275Z,15.13
2019-01-20T03:13:17.639Z,15.83
2019-01-20T03:15:48.077Z,16.83
2019-01-20T03:18:18.708Z,16.03
2019-01-20T03:20:49.400Z,15.33
2019-01-20T03:23:19.774Z,14.40
2019-01-20T03:25:50.206Z,15.50
2019-01-20T03:28:21.943Z,14.37
2019-01-20T03:30:52.308Z,14.47
2019-01-20T03:33:22.726Z,14.80
2019-01-20T03:35:53.259Z,13.90
2019-01-20T03:38:23.530Z,13.53
2019-01-20T03:40:53.889Z,13.40
2019-01-20T03:43:24.658Z,13.80
2019-01-20T03:45:55.195Z,13.73
2019-01-20T03:48:26.061Z,15.63
2019-01-20T03:50:56.587Z,14.30
2019-01-20T03:53:26.954Z,14.40
2019-01-20T03:55:57.971Z,12.90
2019-01-20T03:58:28.455Z,12.53
2019-01-20T04:00:58.821Z,13.23
2019-01-20T04:03:29.436Z,13.70
2019-01-20T04:05:59.828Z,13.97
2019-01-20T04:08:30.126Z,13.57
2019-01-20T04:11:00.951Z,13.27
2019-01-20T04:13:31.641Z,11.53
2019-01-20T04:16:01.941Z,12.77
2019-01-20T04:18:32.746Z,13.43
2019-01-20T04:21:03.026Z,12.23
2019-01-20T04:23:33.608Z,13.20
2019-01-20T04:26:04.259Z,12.13
2019-01-20T04:28:34.576Z,12.83
2019-01-20T04:31:05.279Z,12.50
2019-01-20T04:33:35.933Z,11.90
2019-01-20T04:36:06.202Z,12.53
2019-01-20T04:38:36.979Z,13.80
2019-01-20T04:41:07.572Z,13.37
2019-01-20T04:43:37.946Z,13.17
2019-01-20T04:46:08.514Z,11.80
2019-01-20T04:48:39.101Z,11.83
2019-01-20T04:51:09.475Z,13.50
2019-01-20T04:53:40.787Z,13.60
2019-01-20T04:56:11.099Z,12.80
2019-01-20T04:58:41.889Z,12.87
2019-01-20T05:01:12.280Z,13.53
2019-01-20T05:03:42.585Z,12.73
2019-01-20T05:06:12.941Z,11.40
2019-01-20T05:08:43.812Z,11.63
2019-01-20T05:11:14.115Z,11.70
2019-01-20T05:13:44.559Z,11.70
2019-01-20T05:16:15.222Z,11.13
2019-01-20T05:18:45.711Z,13.03
2019-01-20T05:21:17.073Z,11.27
2019-01-20T05:23:47.711Z,12.87
2019-01-20T05:26:18.302Z,11.73
2019-01-20T05:28:49.067Z,11.90
2019-01-20T05:31:19.411Z,11.87
2019-01-20T05:33:49.715Z,11.07
2019-01-20T05:36:21.443Z,11.80
2019-01-20T05:38:51.730Z,10.40
2019-01-20T05:41:22.044Z,16.03
2019-01-20T05:43:52.776Z,16.67
2019-01-20T05:46:23.292Z,12.17
2019-01-20T05:48:53.735Z,11.40
2019-01-20T05:51:24.266Z,11.43
2019-01-20T05:53:55.015Z,11.03
2019-01-20T05:56:25.422Z,11.03
2019-01-20T05:58:55.750Z,10.50
2019-01-20T06:01:27.313Z,10.10
2019-01-20T06:03:57.982Z,10.70
2019-01-20T06:06:28.290Z,9.97
2019-01-20T06:08:58.958Z,10.57
2019-01-20T06:11:29.767Z,11.40
2019-01-20T06:14:00.463Z,10.30
2019-01-20T06:16:30.756Z,12.00
2019-01-20T06:19:01.562Z,10.83
2019-01-20T06:21:32.254Z,11.10
2019-01-20T06:24:02.606Z,11.20
2019-01-20T06:26:33.006Z,11.93
2019-01-20T06:29:03.774Z,10.20
2019-01-20T06:31:34.041Z,11.37
2019-01-20T06:34:04.419Z,10.60
2019-01-20T06:36:36.003Z,11.10
2019-01-20T06:39:08.702Z,10.70
2019-01-20T06:41:39.040Z,10.80
2019-01-20T06:44:09.885Z,11.10
2019-01-20T06:46:40.374Z,11.83
2019-01-20T06:49:10.925Z,10.50
2019-01-20T06:51:41.478Z,10.00
2019-01-20T06:54:12.101Z,9.97
2019-01-20T06:56:42.767Z,11.47
2019-01-20T06:59:13.160Z,10.73
2019-01-20T07:01:43.441Z,11.03
2019-01-20T07:04:13.890Z,11.27
2019-01-20T07:06:44.419Z,11.63
2019-01-20T07:09:15.901Z,10.90
2019-01-20T07:11:46.644Z,13.20
2019-01-20T07:14:17.370Z,11.73
2019-01-20T07:16:47.749Z,10.70
2019-01-20T07:19:18.636Z,10.03
2019-01-20T07:21:49.456Z,9.97
2019-01-20T07:24:19.785Z,11.17
2019-01-20T07:26:50.640Z,12.00
2019-01-20T07:29:21.149Z,11.43
2019-01-20T07:31:51.458Z,11.43
2019-01-20T07:34:21.970Z,12.97
2019-01-20T07:36:52.400Z,12.70
2019-01-20T07:39:23.235Z,12.57
2019-01-20T07:41:53.927Z,12.00
2019-01-20T07:44:24.281Z,10.77
2019-01-20T07:46:54.778Z,9.80
2019-01-20T07:49:25.558Z,10.77
2019-01-20T07:51:56.019Z,10.10
2019-01-20T07:54:26.437Z,11.23
2019-01-20T07:56:57.107Z,10.13
2019-01-20T07:59:27.450Z,10.60
2019-01-20T08:01:57.750Z,10.60
2019-01-20T08:04:28.147Z,11.53
2019-01-20T08:06:58.528Z,11.17
2019-01-20T08:09:28.947Z,11.43
2019-01-20T08:11:59.247Z,10.27
2019-01-20T08:14:29.627Z,10.93
2019-01-20T08:17:00.007Z,9.93
2019-01-20T08:19:30.422Z,10.20
2019-01-20T08:22:00.809Z,11.37
2019-01-20T08:24:31.544Z,10.30
2019-01-20T08:27:01.890Z,10.73
2019-01-20T08:29:32.416Z,12.03
2019-01-20T08:32:03.154Z,10.83
2019-01-20T08:34:33.608Z,11.57
2019-01-20T08:37:04.431Z,10.13
2019-01-20T08:39:34.942Z,10.80
2019-01-20T08:42:05.363Z,9.00
2019-01-20T08:44:39.593Z,9.87
2019-01-20T08:47:32.163Z,10.63
2019-01-20T08:50:02.788Z,10.23
2019-01-20T08:52:33.350Z,11.07
2019-01-20T08:55:04.353Z,9.53
2019-01-20T08:57:34.658Z,10.53
2019-01-20T09:00:07.655Z,10.43
2019-01-20T09:02:38.035Z,9.60
2019-01-20T09:05:08.833Z,9.50
2019-01-20T09:07:39.689Z,9.63
2019-01-20T09:10:18.026Z,10.93
2019-01-20T09:12:48.929Z,10.77
2019-01-20T09:15:19.424Z,10.47
2019-01-20T09:17:50.040Z,12.97
2019-01-20T09:20:20.873Z,12.37
2019-01-20T09:22:51.457Z,10.87
2019-01-20T09:25:21.986Z,8.93
2019-01-20T09:27:54.077Z,9.13
2019-01-20T09:30:24.879Z,9.60
2019-01-20T09:32:57.221Z,8.63
2019-01-20T09:35:27.830Z,9.83
2019-01-20T09:37:58.510Z,9.00
2019-01-20T09:40:28.797Z,9.50
2019-01-20T09:42:59.263Z,9.33
2019-01-20T09:45:31.083Z,9.93
2019-01-20T09:48:01.790Z,9.00
2019-01-20T09:50:32.650Z,11.43
2019-01-20T09:53:02.952Z,12.17
2019-01-20T09:55:33.630Z,10.20
2019-01-20T09:58:04.057Z,10.47
2019-01-20T10:00:34.528Z,11.73
2019-01-20T10:03:04.866Z,11.47
2019-01-20T10:05:35.485Z,12.00
2019-01-20T10:08:06.242Z,10.40
2019-01-20T10:10:36.545Z,11.53
2019-01-20T10:13:07.430Z,10.60
2019-01-20T10:15:37.885Z,12.03
2019-01-20T10:18:08.794Z,13.33
2019-01-20T10:20:39.214Z,12.27
2019-01-20T10:23:09.662Z,11.67
2019-01-20T10:25:40.653Z,11.93
2019-01-20T10:28:12.914Z,11.10
2019-01-20T10:30:43.200Z,11.40
2019-01-20T10:33:13.913Z,11.60
2019-01-20T10:35:50.237Z,11.20
2019-01-20T10:38:20.606Z,12.23
2019-01-20T10:40:51.382Z,10.80
2019-01-20T10:43:22.324Z,11.83
2019-01-20T10:45:52.637Z,12.30
2019-01-20T10:48:23.627Z,11.60
2019-01-20T10:50:54.411Z,10.10
2019-01-20T10:53:24.691Z,11.50
2019-01-20T10:55:55.327Z,11.07
2019-01-20T10:58:25.743Z,10.23
2019-01-20T11:00:56.024Z,9.83
2019-01-20T11:03:26.329Z,9.70
2019-01-20T11:05:56.875Z,10.57
2019-01-20T11:08:27.166Z,11.70
2019-01-20T11:10:57.467Z,11.17
2019-01-20T11:13:28.281Z,10.33
2019-01-20T11:15:58.849Z,10.40
2019-01-20T11:18:29.414Z,12.10
2019-01-20T11:21:00.059Z,12.60
2019-01-20T11:23:30.477Z,11.83
2019-01-20T11:26:01.173Z,11.43
2019-01-20T11:28:31.604Z,12.27
2019-01-20T11:31:01.877Z,12.50
2019-01-20T11:33:32.663Z,11.17
2019-01-20T11:36:03.126Z,12.10
2019-01-20T11:38:33.414Z,12.37
2019-01-20T11:41:04.172Z,11.97
2019-01-20T11:43:34.879Z,11.83
2019-01-20T11:46:05.447Z,13.50
2019-01-20T11:48:36.146Z,11.80
2019-01-20T11:51:06.831Z,12.90
2019-01-20T11:53:37.595Z,12.80
2019-01-20T11:56:08.060Z,13.40
2019-01-20T11:58:38.392Z,12.97
2019-01-20T12:01:09.674Z,11.63
2019-01-20T12:03:40.365Z,12.27
2019-01-20T12:06:10.791Z,13.23
2019-01-20T12:08:41.413Z,13.67
2019-01-20T12:11:12.171Z,11.77
2019-01-20T12:13:42.451Z,12.47
2019-01-20T12:16:13.226Z,15.20
2019-01-20T12:18:44.025Z,13.70
2019-01-20T12:21:15.468Z,12.20
2019-01-20T12:23:46.118Z,12.33
2019-01-20T12:26:16.448Z,13.50
2019-01-20T12:28:46.837Z,11.87
2019-01-20T12:31:17.548Z,12.50
2019-01-20T12:33:47.845Z,12.00
2019-01-20T12:36:18.444Z,10.87
2019-01-20T12:38:49.081Z,13.23
2019-01-20T12:41:19.686Z,13.53
2019-01-20T12:43:49.990Z,11.33
2019-01-20T12:46:20.622Z,11.87
2019-01-20T12:48:50.926Z,12.53
2019-01-20T12:51:28.356Z,13.10
2019-01-20T12:53:53.658Z,14.47
2019-01-20T12:56:24.051Z,13.63
2019-01-20T12:58:54.433Z,15.43
2019-01-20T13:01:24.802Z,14.77
2019-01-20T13:03:55.096Z,16.23
2019-01-20T13:06:25.880Z,15.57
2019-01-20T13:08:56.154Z,15.00
2019-01-20T13:11:26.521Z,15.90
2019-01-20T13:13:57.124Z,15.50
2019-01-20T13:16:27.829Z,16.83
2019-01-20T13:18:58.173Z,15.57
2019-01-20T13:21:28.776Z,18.37
2019-01-20T13:23:59.125Z,17.17
2019-01-20T13:26:29.511Z,18.77
2019-01-20T13:28:59.797Z,20.17
2019-01-20T13:31:30.203Z,18.97
2019-01-20T13:34:00.773Z,18.37
2019-01-20T13:36:31.334Z,20.37
2019-01-20T13:39:01.694Z,17.83
2019-01-20T13:41:34.533Z,19.23
2019-01-20T13:44:08.850Z,18.93
2019-01-20T13:46:39.355Z,20.00
2019-01-20T13:49:10.079Z,19.23
2019-01-20T13:51:40.994Z,36.87
2019-01-20T13:54:11.304Z,34.13
2019-01-20T13:56:41.688Z,63.93
2019-01-20T13:59:11.965Z,22.83
2019-01-20T14:01:42.911Z,31.60
2019-01-20T14:04:13.647Z,25.17
2019-01-20T14:06:43.976Z,29.70
2019-01-20T14:09:14.515Z,30.23
2019-01-20T14:11:45.303Z,37.40
2019-01-20T14:14:15.710Z,36.47
2019-01-20T14:16:46.289Z,41.63
2019-01-20T14:19:21.700Z,35.70
2019-01-20T14:21:49.258Z,34.30
2019-01-20T14:24:19.550Z,43.70
2019-01-20T14:26:50.377Z,43.00
2019-01-20T14:29:20.660Z,39.13
2019-01-20T14:31:51.520Z,36.33
2019-01-20T14:34:21.817Z,34.23
2019-01-20T14:36:52.273Z,34.07
2019-01-20T14:39:22.923Z,37.70
2019-01-20T14:41:53.273Z,34.03
2019-01-20T14:44:23.606Z,30.17
2019-01-20T14:46:54.396Z,34.87
2019-01-20T14:49:24.727Z,31.07
2019-01-20T14:51:55.438Z,36.73
2019-01-20T14:54:26.120Z,43.83
2019-01-20T14:56:56.698Z,38.10
2019-01-20T14:59:27.023Z,39.30
2019-01-20T15:01:57.752Z,43.87
2019-01-20T15:04:28.537Z,42.67
2019-01-20T15:06:58.954Z,47.80
2019-01-20T15:09:29.582Z,48.53
2019-01-20T15:12:00.414Z,46.57
2019-01-20T15:14:30.848Z,49.87
2019-01-20T15:17:01.521Z,50.00
2019-01-20T15:19:32.153Z,53.63
2019-01-20T15:22:02.830Z,56.83
2019-01-20T15:24:33.154Z,53.87
2019-01-20T15:27:03.968Z,49.93
2019-01-20T15:29:34.299Z,45.00
2019-01-20T15:32:04.857Z,51.27
2019-01-20T15:34:35.485Z,54.83
2019-01-20T15:37:06.131Z,55.57
2019-01-20T15:39:36.870Z,60.13
2019-01-20T15:42:07.476Z,52.47
2019-01-20T15:44:37.763Z,47.93
2019-01-20T15:47:08.486Z,47.97
2019-01-20T15:49:38.780Z,43.13
2019-01-20T15:52:09.204Z,49.57
2019-01-20T15:54:39.835Z,49.63
2019-01-20T15:57:10.195Z,36.03
2019-01-20T15:59:40.481Z,29.07
2019-01-20T16:02:11.240Z,31.97
2019-01-20T16:04:41.960Z,32.20
2019-01-20T16:07:12.545Z,32.23
2019-01-20T16:09:42.834Z,30.53
2019-01-20T16:12:13.235Z,35.30
2019-01-20T16:14:43.874Z,34.70
2019-01-20T16:17:14.500Z,36.10
2019-01-20T16:19:44.797Z,40.57
2019-01-20T16:22:15.508Z,53.00
2019-01-20T16:24:45.978Z,50.63
2019-01-20T16:27:16.639Z,50.67
2019-01-20T16:29:47.270Z,50.97
2019-01-20T16:32:18.077Z,48.80
2019-01-20T16:34:48.370Z,50.10
2019-01-20T16:37:18.880Z,49.63
2019-01-20T16:39:49.203Z,44.00
2019-01-20T16:42:19.855Z,45.33
2019-01-20T16:44:50.640Z,44.77
2019-01-20T16:47:21.143Z,48.10
2019-01-20T16:49:51.833Z,46.27
2019-01-20T16:52:22.897Z,50.30
2019-01-20T16:54:53.200Z,44.27
2019-01-20T16:57:23.582Z,39.40
2019-01-20T16:59:54.346Z,42.47
2019-01-20T17:02:24.769Z,46.03
2019-01-20T17:04:55.174Z,45.13
2019-01-20T17:07:26.101Z,53.23
2019-01-20T17:09:56.413Z,48.20
2019-01-20T17:12:26.720Z,44.77
2019-01-20T17:14:57.455Z,41.77
2019-01-20T17:17:28.082Z,42.33
2019-01-20T17:19:58.349Z,39.67
2019-01-20T17:22:29.052Z,42.60
2019-01-20T17:24:59.428Z,41.07
2019-01-20T17:27:29.701Z,48.60
2019-01-20T17:30:00.472Z,44.20
2019-01-20T17:32:31.335Z,44.73
2019-01-20T17:35:01.625Z,46.13
2019-01-20T17:37:32.119Z,44.33
2019-01-20T17:40:02.824Z,47.63
2019-01-20T17:42:33.142Z,45.13
2019-01-20T17:45:03.966Z,42.60
2019-01-20T17:47:34.311Z,42.20
2019-01-20T17:50:06.672Z,43.40
2019-01-20T17:52:37.188Z,41.97
2019-01-20T17:55:07.873Z,45.13
2019-01-20T17:57:38.527Z,43.67
2019-01-20T18:00:12.279Z,42.47
2019-01-20T18:02:42.901Z,46.33
2019-01-20T18:05:14.822Z,67.50
2019-01-20T18:07:45.699Z,43.50
2019-01-20T18:10:16.197Z,45.60
2019-01-20T18:12:46.737Z,44.07
2019-01-20T18:15:18.227Z,47.23
2019-01-20T18:17:48.781Z,47.43
2019-01-20T18:20:21.867Z,47.73
2019-01-20T18:22:52.229Z,45.20
2019-01-20T18:25:22.822Z,47.43
2019-01-20T18:27:53.648Z,55.23
2019-01-20T18:30:25.640Z,85.00
2019-01-20T18:32:55.946Z,64.37
2019-01-20T18:35:27.243Z,82.73
2019-01-20T18:37:58.070Z,73.03
2019-01-20T18:40:28.630Z,59.57
2019-01-20T18:42:59.375Z,81.10
2019-01-20T18:45:31.687Z,50.10
2019-01-20T18:48:02.208Z,50.63
2019-01-20T18:50:34.477Z,79.10
2019-01-20T18:53:05.337Z,59.93
2019-01-20T18:55:36.842Z,47.47
2019-01-20T18:58:07.673Z,64.60
2019-01-20T19:00:44.146Z,58.33
2019-01-20T19:03:14.989Z,55.40
2019-01-20T19:05:45.853Z,54.13
2019-01-20T19:08:16.174Z,57.57
2019-01-20T19:10:46.835Z,54.57
2019-01-20T19:13:17.555Z,53.70
2019-01-20T19:15:47.924Z,51.60
2019-01-20T19:18:19.108Z,53.97
2019-01-20T19:20:49.800Z,58.23
2019-01-20T19:23:20.103Z,51.23
2019-01-20T19:25:50.448Z,52.63
2019-01-20T19:28:21.220Z,55.07
2019-01-20T19:30:51.580Z,54.23
2019-01-20T19:33:21.936Z,60.17
2019-01-20T19:35:52.905Z,55.67
2019-01-20T19:38:23.393Z,56.73
2019-01-20T19:40:53.873Z,54.80
2019-01-20T19:43:24.391Z,54.10
2019-01-20T19:45:54.813Z,57.33
2019-01-20T19:48:25.106Z,57.97
2019-01-20T19:50:55.532Z,63.03
2019-01-20T19:53:25.825Z,73.57
2019-01-20T19:55:56.728Z,65.53
2019-01-20T19:58:27.225Z,63.77
2019-01-20T20:00:57.776Z,60.17
2019-01-20T20:03:28.728Z,68.30
2019-01-20T20:05:59.523Z,74.43
2019-01-20T20:08:29.815Z,76.93
2019-01-20T20:11:00.506Z,73.07
2019-01-20T20:13:31.173Z,66.77
2019-01-20T20:16:01.779Z,58.90
2019-01-20T20:18:32.245Z,65.93
2019-01-20T20:21:02.988Z,68.63
2019-01-20T20:23:33.302Z,65.20
2019-01-20T20:26:03.831Z,67.00
2019-01-20T20:28:34.229Z,63.67
2019-01-20T20:31:05.402Z,65.87
2019-01-20T20:33:35.928Z,59.60
2019-01-20T20:36:06.319Z,54.40
2019-01-20T20:38:38.340Z,67.27
2019-01-20T20:41:09.186Z,57.87
2019-01-20T20:43:39.511Z,51.20
2019-01-20T20:46:09.970Z,47.93
2019-01-20T20:48:40.354Z,60.97
2019-01-20T20:51:10.929Z,59.40
2019-01-20T20:53:41.246Z,55.43
2019-01-20T20:56:12.014Z,49.37
2019-01-20T20:58:42.449Z,47.73
2019-01-20T21:01:13.259Z,52.40
2019-01-20T21:03:43.905Z,50.50
2019-01-20T21:06:14.394Z,51.30
2019-01-20T21:08:48.466Z,49.37
2019-01-20T21:11:17.279Z,49.53
2019-01-20T21:13:47.541Z,47.30
2019-01-20T21:16:18.155Z,45.10
2019-01-20T21:18:48.682Z,44.07
2019-01-20T21:21:18.998Z,48.47
2019-01-20T21:23:49.673Z,48.40
2019-01-20T21:26:20.368Z,52.10
2019-01-20T21:28:50.752Z,55.67
2019-01-20T21:31:21.340Z,56.60
2019-01-20T21:33:51.634Z,52.77
2019-01-20T21:36:22.481Z,50.53
2019-01-20T21:38:52.911Z,46.80
2019-01-20T21:41:23.255Z,44.17
2019-01-20T21:43:53.926Z,46.30
2019-01-20T21:46:24.506Z,49.30
2019-01-20T21:48:54.793Z,45.60
2019-01-20T21:51:25.568Z,47.47
2019-01-20T21:53:56.049Z,51.77
2019-01-20T21:56:26.486Z,51.73
2019-01-20T21:58:56.906Z,48.67
2019-01-20T22:01:27.500Z,48.43
2019-01-20T22:03:57.963Z,55.13
2019-01-20T22:06:28.640Z,54.87
2019-01-20T22:08:59.092Z,57.90
2019-01-20T22:11:29.826Z,58.63
2019-01-20T22:14:00.208Z,62.43
2019-01-20T22:16:30.552Z,65.63
2019-01-20T22:19:01.135Z,61.13
2019-01-20T22:21:32.055Z,63.33
2019-01-20T22:24:02.372Z,61.70
2019-01-20T22:26:32.719Z,64.77
2019-01-20T22:29:03.374Z,62.03
2019-01-20T22:31:36.068Z,61.07
2019-01-20T22:34:06.777Z,55.90
2019-01-20T22:36:37.463Z,54.03
2019-01-20T22:39:09.074Z,55.87
2019-01-20T22:41:39.544Z,53.83
2019-01-20T22:44:09.832Z,56.80
2019-01-20T22:46:40.180Z,57.00
2019-01-20T22:49:10.869Z,57.30
2019-01-20T22:51:41.269Z,60.10
2019-01-20T22:54:11.811Z,59.07
2019-01-20T22:56:42.489Z,56.67
2019-01-20T22:59:13.003Z,57.53
2019-01-20T23:01:43.298Z,52.80
2019-01-20T23:04:13.953Z,58.47
2019-01-20T23:06:44.354Z,56.63
2019-01-20T23:09:15.106Z,57.70
2019-01-20T23:11:45.405Z,55.53
2019-01-20T23:14:15.699Z,54.77
2019-01-20T23:16:46.096Z,60.17
2019-01-20T23:19:16.702Z,59.47
2019-01-20T23:21:47.031Z,60.90
2019-01-20T23:24:17.828Z,59.03
2019-01-20T23:26:48.617Z,57.63
2019-01-20T23:29:18.962Z,56.37
2019-01-20T23:31:49.705Z,55.97
2019-01-20T23:34:20.454Z,54.17
2019-01-20T23:36:50.778Z,54.13
2019-01-20T23:39:21.217Z,54.43
2019-01-20T23:41:52.026Z,63.07
2019-01-20T23:44:22.365Z,61.73
2019-01-20T23:46:52.668Z,59.47
2019-01-20T23:49:23.354Z,54.97
2019-01-20T23:51:54.002Z,54.70
2019-01-20T23:54:24.347Z,60.57
2019-01-20T23:56:54.991Z,56.93
2019-01-20T23:59:25.658Z,59.93
